createdAt,value
2019-04-11T00:02:12.211Z,8.34
2019-04-11T00:04:40.139Z,8.26
2019-04-11T00:07:07.927Z,8.46
2019-04-11T00:09:35.161Z,8.46
2019-04-11T00:12:03.190Z,8.40
2019-04-11T00:14:31.650Z,8.36
2019-04-11T00:16:59.119Z,8.35
2019-04-11T00:19:27.375Z,8.24
2019-04-11T00:21:55.206Z,8.20
2019-04-11T00:24:22.952Z,8.28
2019-04-11T00:26:50.743Z,8.27
2019-04-11T00:29:18.495Z,8.26
2019-04-11T00:31:46.963Z,8.22
2019-04-11T00:34:15.105Z,8.30
2019-04-11T00:36:42.469Z,8.20
2019-04-11T00:39:13.219Z,8.18
2019-04-11T00:41:41.808Z,8.22
2019-04-11T00:44:10.427Z,8.29
2019-04-11T00:46:37.882Z,8.40
2019-04-11T00:49:06.233Z,8.51
2019-04-11T00:51:34.063Z,8.49
2019-04-11T00:54:02.554Z,8.54
2019-04-11T00:56:30.481Z,8.43
2019-04-11T00:58:58.367Z,8.44
2019-04-11T01:01:26.058Z,8.43
2019-04-11T01:03:53.714Z,8.45
2019-04-11T01:06:22.446Z,8.40
2019-04-11T01:08:49.918Z,8.56
2019-04-11T01:11:17.225Z,8.46
2019-04-11T01:13:50.842Z,8.44
2019-04-11T01:16:33.285Z,8.30
2019-04-11T01:19:00.735Z,8.47
2019-04-11T01:21:28.547Z,8.45
2019-04-11T01:23:55.978Z,8.60
2019-04-11T01:26:23.374Z,8.50
2019-04-11T01:28:51.955Z,8.48
2019-04-11T01:31:21.829Z,8.34
2019-04-11T01:33:49.132Z,8.22
2019-04-11T01:36:16.798Z,8.34
2019-04-11T01:38:48.456Z,8.27
2019-04-11T01:41:15.787Z,8.25
2019-04-11T01:43:52.686Z,8.16
2019-04-11T01:46:12.340Z,8.12
2019-04-11T01:48:47.938Z,8.18
2019-04-11T01:51:15.810Z,8.28
2019-04-11T01:53:43.582Z,8.24
2019-04-11T01:56:10.998Z,8.25
2019-04-11T01:58:38.540Z,8.29
2019-04-11T02:01:31.185Z,8.30
2019-04-11T02:04:24.146Z,8.15
2019-04-11T02:06:51.657Z,8.18
2019-04-11T02:09:19.999Z,8.23
2019-04-11T02:11:47.739Z,8.21
2019-04-11T02:14:17.019Z,8.27
2019-04-11T02:16:45.376Z,8.24
2019-04-11T02:19:12.750Z,8.34
2019-04-11T02:21:40.218Z,8.20
2019-04-11T02:24:36.257Z,8.40
2019-04-11T02:27:19.586Z,8.16
2019-04-11T02:29:46.899Z,8.17
2019-04-11T02:32:15.606Z,8.31
2019-04-11T02:34:43.900Z,8.23
2019-04-11T02:37:13.347Z,8.21
2019-04-11T02:39:41.011Z,8.14
2019-04-11T02:42:10.714Z,8.24
2019-04-11T02:44:56.142Z,8.18
2019-04-11T02:47:13.032Z,8.04
2019-04-11T02:49:36.799Z,8.14
2019-04-11T02:52:04.557Z,8.06
2019-04-11T02:54:33.560Z,8.15
2019-04-11T02:57:02.443Z,8.13
2019-04-11T02:59:30.653Z,8.15
2019-04-11T03:01:58.254Z,8.12
2019-04-11T03:04:26.973Z,8.15
2019-04-11T03:06:55.448Z,8.11
2019-04-11T03:09:24.131Z,8.08
2019-04-11T03:11:51.745Z,8.11
2019-04-11T03:14:20.704Z,8.14
2019-04-11T03:16:58.988Z,8.07
2019-04-11T03:19:34.447Z,7.99
2019-04-11T03:21:47.523Z,8.14
2019-04-11T03:24:15.478Z,8.05
2019-04-11T03:26:45.552Z,8.03
2019-04-11T03:29:13.008Z,8.01
2019-04-11T03:32:16.886Z,8.03
2019-04-11T03:35:02.914Z,8.05
2019-04-11T03:39:29.120Z,8.02
2019-04-11T03:41:56.580Z,8.11
2019-04-11T03:44:18.251Z,8.01
2019-04-11T03:46:49.238Z,8.03
2019-04-11T03:49:22.604Z,8.01
2019-04-11T03:51:36.494Z,8.08
2019-04-11T03:54:05.185Z,8.07
2019-04-11T03:56:33.162Z,8.04
2019-04-11T03:59:01.449Z,7.96
2019-04-11T04:01:29.627Z,8.13
2019-04-11T04:03:58.350Z,8.00
2019-04-11T04:06:26.301Z,8.00
2019-04-11T04:08:55.517Z,8.01
2019-04-11T04:11:27.120Z,8.01
2019-04-11T04:14:10.539Z,7.98
2019-04-11T04:16:54.310Z,7.97
2019-04-11T04:19:35.158Z,7.98
2019-04-11T04:22:27.094Z,7.92
2019-04-11T04:24:55.922Z,7.90
2019-04-11T04:27:27.469Z,7.92
2019-04-11T04:29:57.265Z,8.01
2019-04-11T04:32:24.588Z,8.02
2019-04-11T04:34:53.100Z,8.01
2019-04-11T04:37:23.456Z,8.10
2019-04-11T04:40:03.281Z,7.98
2019-04-11T04:42:27.207Z,8.08
2019-04-11T04:44:49.309Z,7.88
2019-04-11T04:47:28.755Z,7.81
2019-04-11T04:49:48.323Z,7.81
2019-04-11T04:52:16.501Z,7.80
2019-04-11T04:54:44.511Z,7.91
2019-04-11T04:57:13.309Z,7.85
2019-04-11T04:59:42.455Z,7.85
2019-04-11T05:02:10.968Z,7.85
2019-04-11T05:04:40.305Z,7.91
2019-04-11T05:07:09.400Z,7.80
2019-04-11T05:09:38.354Z,7.83
2019-04-11T05:12:06.143Z,7.82
2019-04-11T05:14:35.032Z,7.77
2019-04-11T05:17:03.645Z,7.76
2019-04-11T05:19:32.006Z,7.69
2019-04-11T05:21:59.813Z,7.67
2019-04-11T05:24:28.266Z,7.60
2019-04-11T05:26:55.958Z,7.66
2019-04-11T05:29:23.317Z,7.65
2019-04-11T05:31:51.151Z,7.67
2019-04-11T05:34:20.273Z,7.73
2019-04-11T05:36:47.585Z,7.73
2019-04-11T05:39:15.990Z,7.68
2019-04-11T05:41:46.692Z,7.68
2019-04-11T05:44:14.416Z,7.71
2019-04-11T05:46:50.008Z,7.71
2019-04-11T05:49:22.870Z,7.72
2019-04-11T05:52:03.960Z,7.66
2019-04-11T05:54:41.180Z,7.62
2019-04-11T05:57:07.027Z,7.71
2019-04-11T05:59:35.300Z,7.76
2019-04-11T06:02:09.865Z,7.60
2019-04-11T06:04:42.703Z,7.69
2019-04-11T06:07:23.164Z,7.66
2019-04-11T06:09:53.114Z,7.63
2019-04-11T06:12:31.775Z,7.64
2019-04-11T06:15:22.934Z,7.63
2019-04-11T06:17:50.464Z,7.63
2019-04-11T06:20:49.053Z,7.73
2019-04-11T06:23:31.774Z,7.58
2019-04-11T06:26:10.902Z,7.62
2019-04-11T06:28:39.141Z,7.61
2019-04-11T06:31:31.803Z,7.73
2019-04-11T06:34:02.207Z,7.68
2019-04-11T06:36:46.907Z,7.70
2019-04-11T06:39:21.030Z,7.71
2019-04-11T06:42:13.387Z,7.79
2019-04-11T06:45:09.607Z,7.73
2019-04-11T06:48:25.160Z,7.76
2019-04-11T06:54:38.111Z,7.74
2019-04-11T06:57:11.804Z,7.82
2019-04-11T06:59:44.933Z,7.75
2019-04-11T07:02:19.184Z,7.69
2019-04-11T07:04:52.164Z,7.73
2019-04-11T07:07:20.605Z,7.88
2019-04-11T07:10:02.158Z,7.78
2019-04-11T07:12:55.221Z,7.68
2019-04-11T07:15:27.919Z,7.82
2019-04-11T07:18:14.104Z,7.73
2019-04-11T07:21:01.114Z,7.83
2019-04-11T07:23:51.371Z,7.88
2019-04-11T07:26:38.410Z,7.89
2019-04-11T07:29:25.776Z,7.92
2019-04-11T07:32:09.280Z,7.84
2019-04-11T07:35:15.792Z,7.86
2019-04-11T07:37:44.871Z,7.86
2019-04-11T07:40:31.566Z,7.84
2019-04-11T07:43:19.131Z,7.92
2019-04-11T07:46:22.829Z,7.89
2019-04-11T07:51:58.274Z,7.86
2019-04-11T07:54:26.306Z,7.89
2019-04-11T07:57:13.054Z,8.01
2019-04-11T07:59:58.403Z,8.06
2019-04-11T08:02:43.870Z,8.09
2019-04-11T08:05:30.798Z,8.06
2019-04-11T08:08:21.369Z,7.99
2019-04-11T08:11:13.495Z,8.04
2019-04-11T08:13:57.345Z,8.05
2019-04-11T08:16:44.902Z,8.02
2019-04-11T08:19:33.595Z,8.07
2019-04-11T08:22:16.914Z,8.01
2019-04-11T08:25:13.298Z,7.93
2019-04-11T08:27:54.684Z,7.98
2019-04-11T08:30:14.908Z,8.01
2019-04-11T08:32:51.951Z,7.95
2019-04-11T08:35:44.669Z,8.07
2019-04-11T08:38:16.684Z,8.11
2019-04-11T08:40:53.254Z,8.12
2019-04-11T08:43:24.369Z,8.13
2019-04-11T08:46:04.715Z,8.12
2019-04-11T08:48:35.062Z,8.19
2019-04-11T08:51:05.174Z,8.10
2019-04-11T08:53:51.197Z,8.16
2019-04-11T08:56:18.969Z,8.08
2019-04-11T08:59:31.539Z,8.10
2019-04-11T09:01:58.820Z,8.16
2019-04-11T09:04:46.224Z,8.20
2019-04-11T09:07:14.880Z,8.20
2019-04-11T09:10:07.574Z,8.17
2019-04-11T09:12:36.397Z,8.22
2019-04-11T09:15:24.468Z,8.13
2019-04-11T09:18:03.371Z,8.18
2019-04-11T09:20:43.501Z,8.19
2019-04-11T09:23:13.457Z,8.15
2019-04-11T09:26:18.732Z,8.18
2019-04-11T09:28:49.422Z,8.21
2019-04-11T09:31:39.626Z,8.34
2019-04-11T09:34:25.921Z,8.33
2019-04-11T09:37:17.622Z,8.34
2019-04-11T09:40:01.645Z,8.32
2019-04-11T09:42:55.410Z,8.43
2019-04-11T09:45:44.301Z,8.38
2019-04-11T09:48:44.268Z,8.42
2019-04-11T09:51:30.286Z,8.47
2019-04-11T09:54:26.366Z,8.40
2019-04-11T09:57:16.788Z,8.32
2019-04-11T10:00:02.081Z,8.31
2019-04-11T10:02:48.341Z,8.30
2019-04-11T10:05:18.099Z,8.31
2019-04-11T10:08:03.813Z,8.37
2019-04-11T10:10:41.905Z,8.37
2019-04-11T10:13:26.997Z,8.28
2019-04-11T10:16:32.387Z,8.27
2019-04-11T10:19:10.264Z,8.24
2019-04-11T10:21:39.622Z,8.30
2019-04-11T10:24:30.435Z,8.28
2019-04-11T10:27:04.712Z,8.23
2019-04-11T10:29:52.587Z,8.21
2019-04-11T10:32:23.341Z,8.32
2019-04-11T10:35:12.853Z,8.28
2019-04-11T10:37:42.191Z,8.22
2019-04-11T10:40:41.969Z,8.24
2019-04-11T10:43:09.847Z,8.29
2019-04-11T10:45:58.708Z,8.31
2019-04-11T10:48:37.745Z,8.33
2019-04-11T10:51:17.001Z,8.31
2019-04-11T10:53:44.635Z,8.39
2019-04-11T10:56:43.372Z,8.33
2019-04-11T10:59:11.809Z,8.35
2019-04-11T11:02:13.885Z,8.40
2019-04-11T11:04:45.120Z,8.42
2019-04-11T11:07:16.216Z,8.46
2019-04-11T11:09:54.683Z,8.48
2019-04-11T11:12:33.012Z,8.54
2019-04-11T11:15:07.864Z,8.51
2019-04-11T11:18:13.487Z,8.56
2019-04-11T11:20:50.221Z,8.56
2019-04-11T11:23:33.075Z,8.59
2019-04-11T11:26:07.010Z,8.52
2019-04-11T11:28:38.927Z,8.55
2019-04-11T11:31:29.671Z,8.54
2019-04-11T11:33:57.282Z,8.61
2019-04-11T11:36:43.730Z,8.70
2019-04-11T11:39:29.631Z,8.75
2019-04-11T11:42:15.189Z,8.86
2019-04-11T11:44:51.144Z,8.93
2019-04-11T11:47:39.765Z,8.95
2019-04-11T11:50:11.465Z,8.81
2019-04-11T11:52:59.543Z,8.66
2019-04-11T11:55:31.467Z,8.62
2019-04-11T11:58:18.765Z,8.63
2019-04-11T12:00:49.762Z,8.65
2019-04-11T12:03:35.182Z,8.77
2019-04-11T12:06:05.340Z,8.89
2019-04-11T12:08:56.086Z,8.91
2019-04-11T12:11:24.561Z,9.09
2019-04-11T12:14:20.540Z,9.25
2019-04-11T12:17:08.329Z,9.23
2019-04-11T12:19:51.341Z,9.20
2019-04-11T12:22:13.541Z,9.22
2019-04-11T12:24:52.333Z,9.16
2019-04-11T12:27:39.966Z,9.31
2019-04-11T12:30:34.154Z,9.47
2019-04-11T12:33:27.752Z,9.49
2019-04-11T12:36:14.755Z,9.48
2019-04-11T12:39:04.418Z,9.49
2019-04-11T12:41:36.687Z,9.53
2019-04-11T12:44:23.708Z,9.54
2019-04-11T12:47:09.257Z,9.58
2019-04-11T12:49:58.054Z,9.54
2019-04-11T12:52:33.259Z,9.44
2019-04-11T12:55:01.162Z,9.45
2019-04-11T12:57:46.727Z,9.37
2019-04-11T13:00:32.536Z,9.32
2019-04-11T13:03:28.533Z,9.25
2019-04-11T13:05:59.425Z,9.25
2019-04-11T13:08:46.278Z,9.24
2019-04-11T13:11:14.318Z,9.12
2019-04-11T13:14:06.801Z,9.26
2019-04-11T13:16:34.121Z,9.12
2019-04-11T13:19:15.481Z,9.19
2019-04-11T13:21:46.407Z,9.14
2019-04-11T13:24:31.769Z,9.09
2019-04-11T13:27:11.591Z,9.10
2019-04-11T13:30:04.551Z,8.98
2019-04-11T13:32:56.439Z,8.92
2019-04-11T13:35:41.807Z,8.86
2019-04-11T13:38:26.668Z,8.65
2019-04-11T13:41:20.410Z,8.94
2019-04-11T13:43:51.677Z,8.67
2019-04-11T13:46:47.839Z,8.69
2019-04-11T13:49:33.587Z,8.70
2019-04-11T13:52:29.610Z,8.78
2019-04-11T13:55:15.889Z,8.75
2019-04-11T13:58:02.898Z,8.82
2019-04-11T14:00:59.036Z,8.76
2019-04-11T14:03:46.985Z,8.70
2019-04-11T14:06:19.179Z,8.62
2019-04-11T14:08:59.277Z,8.64
2019-04-11T14:11:27.061Z,8.63
2019-04-11T14:13:54.459Z,8.33
2019-04-11T14:16:22.292Z,8.28
2019-04-11T14:19:19.418Z,8.40
2019-04-11T14:21:48.012Z,8.42
2019-04-11T14:24:25.167Z,8.54
2019-04-11T14:26:53.558Z,8.48
2019-04-11T14:29:28.420Z,8.35
2019-04-11T14:32:03.805Z,8.34
2019-04-11T14:34:49.087Z,8.35
2019-04-11T14:37:38.137Z,8.43
2019-04-11T14:40:10.897Z,8.29
2019-04-11T14:43:16.786Z,8.86
2019-04-11T14:46:15.898Z,8.54
2019-04-11T14:48:45.439Z,8.38
2019-04-11T14:51:23.776Z,8.62
2019-04-11T14:53:59.400Z,8.70
2019-04-11T14:56:27.208Z,8.46
2019-04-11T14:59:12.816Z,8.22
2019-04-11T15:01:43.939Z,8.50
2019-04-11T15:04:39.134Z,9.04
2019-04-11T15:07:06.990Z,8.20
2019-04-11T15:09:41.799Z,8.61
2019-04-11T15:12:17.939Z,8.61
2019-04-11T15:15:23.513Z,8.13
2019-04-11T15:17:55.617Z,9.00
2019-04-11T15:20:55.364Z,8.57
2019-04-11T15:23:37.550Z,8.30
2019-04-11T15:26:23.899Z,8.39
2019-04-11T15:29:04.237Z,8.01
2019-04-11T15:31:49.778Z,8.09
2019-04-11T15:34:45.723Z,8.04
2019-04-11T15:37:51.123Z,7.88
2019-04-11T15:40:37.464Z,7.94
2019-04-11T15:43:42.157Z,7.83
2019-04-11T15:46:33.804Z,7.95
2019-04-11T15:49:23.312Z,7.87
2019-04-11T15:52:01.041Z,7.57
2019-04-11T15:54:47.425Z,7.56
2019-04-11T15:57:27.407Z,7.57
2019-04-11T16:00:26.517Z,7.51
2019-04-11T16:03:10.519Z,7.62
2019-04-11T16:05:56.626Z,7.53
2019-04-11T16:08:46.524Z,7.53
2019-04-11T16:11:39.011Z,7.35
2019-04-11T16:14:11.380Z,7.57
2019-04-11T16:17:07.088Z,7.26
2019-04-11T16:20:05.730Z,7.58
2019-04-11T16:23:05.294Z,7.46
2019-04-11T16:25:32.924Z,7.35
2019-04-11T16:28:22.759Z,7.31
2019-04-11T16:30:52.013Z,7.30
2019-04-11T16:33:45.874Z,7.36
2019-04-11T16:36:28.998Z,7.54
2019-04-11T16:39:19.522Z,7.23
2019-04-11T16:42:03.494Z,7.25
2019-04-11T16:44:59.360Z,7.39
2019-04-11T16:47:49.053Z,7.11
2019-04-11T16:50:16.499Z,7.21
2019-04-11T16:52:43.835Z,7.12
2019-04-11T16:55:11.122Z,7.16
2019-04-11T16:57:38.481Z,7.29
2019-04-11T17:00:09.043Z,7.25
2019-04-11T17:02:36.574Z,6.99
2019-04-11T17:05:05.981Z,6.93
2019-04-11T17:07:56.183Z,7.00
2019-04-11T17:10:42.125Z,6.91
2019-04-11T17:13:09.451Z,6.99
2019-04-11T17:15:36.839Z,6.98
2019-04-11T17:18:04.149Z,7.00
2019-04-11T17:20:31.504Z,7.16
2019-04-11T17:22:58.899Z,7.12
2019-04-11T17:25:26.225Z,7.17
2019-04-11T17:27:53.826Z,7.07
2019-04-11T17:30:24.472Z,6.95
2019-04-11T17:32:51.388Z,6.75
2019-04-11T17:35:20.782Z,7.06
2019-04-11T17:37:48.194Z,6.96
2019-04-11T17:40:15.553Z,7.11
2019-04-11T17:42:44.002Z,6.84
2019-04-11T17:45:11.963Z,6.94
2019-04-11T17:47:39.321Z,7.03
2019-04-11T17:50:06.789Z,6.99
2019-04-11T17:52:34.233Z,6.73
2019-04-11T17:55:04.990Z,6.88
2019-04-11T17:57:32.379Z,7.07
2019-04-11T17:59:59.780Z,6.79
2019-04-11T18:02:27.163Z,6.97
2019-04-11T18:04:54.542Z,7.10
2019-04-11T18:07:21.889Z,6.99
2019-04-11T18:09:49.244Z,6.86
2019-04-11T18:12:16.578Z,6.80
2019-04-11T18:14:43.922Z,6.73
2019-04-11T18:17:11.319Z,6.74
2019-04-11T18:19:38.654Z,6.75
2019-04-11T18:22:08.140Z,6.72
2019-04-11T18:24:35.983Z,7.00
2019-04-11T18:27:03.955Z,6.70
2019-04-11T18:29:31.300Z,6.84
2019-04-11T18:31:59.401Z,6.63
2019-04-11T18:34:26.771Z,6.65
2019-04-11T18:36:54.106Z,6.97
2019-04-11T18:39:21.426Z,6.84
2019-04-11T18:41:51.388Z,6.81
2019-04-11T18:44:19.373Z,6.90
2019-04-11T18:46:46.986Z,6.65
2019-04-11T18:49:14.465Z,6.44
2019-04-11T18:51:41.884Z,6.60
2019-04-11T18:54:09.240Z,6.62
2019-04-11T18:56:38.072Z,6.65
2019-04-11T18:59:05.913Z,6.59
2019-04-11T19:01:33.597Z,6.42
2019-04-11T19:04:01.749Z,6.87
2019-04-11T19:06:29.474Z,6.43
2019-04-11T19:08:57.141Z,6.29
2019-04-11T19:11:24.528Z,6.51
2019-04-11T19:13:52.044Z,6.14
2019-04-11T19:16:19.449Z,6.31
2019-04-11T19:18:48.324Z,6.31
2019-04-11T19:21:20.201Z,6.46
2019-04-11T19:23:45.386Z,6.25
2019-04-11T19:26:14.676Z,6.23
2019-04-11T19:28:44.885Z,6.01
2019-04-11T19:31:13.178Z,6.52
2019-04-11T19:33:40.919Z,6.38
2019-04-11T19:36:10.093Z,6.00
2019-04-11T19:38:43.078Z,6.03
2019-04-11T19:41:07.843Z,5.99
2019-04-11T19:43:35.269Z,6.12
2019-04-11T19:46:03.522Z,6.13
2019-04-11T19:48:30.904Z,5.97
2019-04-11T19:50:59.522Z,6.06
2019-04-11T19:53:26.953Z,5.98
2019-04-11T19:56:02.985Z,5.91
2019-04-11T19:58:31.626Z,6.00
2019-04-11T20:00:58.988Z,6.08
2019-04-11T20:03:26.385Z,6.09
2019-04-11T20:05:53.906Z,5.89
2019-04-11T20:08:21.250Z,5.86
2019-04-11T20:10:48.669Z,5.81
2019-04-11T20:13:16.047Z,5.85
2019-04-11T20:15:43.409Z,5.93
2019-04-11T20:18:11.611Z,5.92
2019-04-11T20:20:38.905Z,5.85
2019-04-11T20:23:10.563Z,6.12
2019-04-11T20:25:35.491Z,5.92
2019-04-11T20:28:02.876Z,5.96
2019-04-11T20:30:30.229Z,5.78
2019-04-11T20:32:57.561Z,6.45
2019-04-11T20:35:29.076Z,5.80
2019-04-11T20:37:54.427Z,5.98
2019-04-11T20:40:22.510Z,5.84
2019-04-11T20:42:54.114Z,6.10
2019-04-11T20:45:19.409Z,5.79
2019-04-11T20:47:46.998Z,5.88
2019-04-11T20:50:14.626Z,6.05
2019-04-11T20:52:41.985Z,5.87
2019-04-11T20:55:09.876Z,5.91
2019-04-11T20:57:37.328Z,6.06
2019-04-11T21:00:05.394Z,6.19
2019-04-11T21:02:32.684Z,5.70
2019-04-11T21:05:01.168Z,5.69
2019-04-11T21:07:31.580Z,5.91
2019-04-11T21:09:58.599Z,5.72
2019-04-11T21:12:25.947Z,6.05
2019-04-11T21:14:53.352Z,5.89
2019-04-11T21:17:20.644Z,5.82
2019-04-11T21:19:47.943Z,5.83
2019-04-11T21:22:15.286Z,5.74
2019-04-11T21:24:43.711Z,5.87
2019-04-11T21:27:11.002Z,5.95
2019-04-11T21:29:38.310Z,5.86
2019-04-11T21:32:05.649Z,5.71
2019-04-11T21:34:32.979Z,5.59
2019-04-11T21:37:02.547Z,5.51
2019-04-11T21:39:29.536Z,5.83
2019-04-11T21:41:56.808Z,5.57
2019-04-11T21:44:24.138Z,5.71
2019-04-11T21:46:51.449Z,5.65
2019-04-11T21:49:18.784Z,5.69
2019-04-11T21:51:46.159Z,5.88
2019-04-11T21:54:14.992Z,5.75
2019-04-11T21:56:42.838Z,5.74
2019-04-11T21:59:10.154Z,5.64
2019-04-11T22:01:39.468Z,5.68
2019-04-11T22:04:06.760Z,5.73
2019-04-11T22:06:34.061Z,5.63
2019-04-11T22:09:04.831Z,5.89
2019-04-11T22:11:31.812Z,5.61
2019-04-11T22:13:59.224Z,5.77
2019-04-11T22:16:26.519Z,5.77
2019-04-11T22:18:54.287Z,5.71
2019-04-11T22:21:21.605Z,5.38
2019-04-11T22:23:49.313Z,5.34
2019-04-11T22:26:16.659Z,5.56
2019-04-11T22:28:44.026Z,5.80
2019-04-11T22:31:11.378Z,5.59
2019-04-11T22:33:58.424Z,5.54
2019-04-11T22:36:27.880Z,5.75
2019-04-11T22:38:55.003Z,5.43
2019-04-11T22:41:22.334Z,5.36
2019-04-11T22:43:49.670Z,5.54
2019-04-11T22:46:20.942Z,5.53
2019-04-11T22:48:46.200Z,5.53
2019-04-11T22:51:14.106Z,5.43
2019-04-11T22:53:43.186Z,5.61
2019-04-11T22:56:11.771Z,5.71
2019-04-11T22:58:39.743Z,5.49
2019-04-11T23:01:07.044Z,5.71
2019-04-11T23:03:56.381Z,5.34
2019-04-11T23:06:23.652Z,5.31
2019-04-11T23:08:50.962Z,5.32
2019-04-11T23:11:18.281Z,5.39
2019-04-11T23:13:46.267Z,5.69
2019-04-11T23:16:14.412Z,5.61
2019-04-11T23:18:44.274Z,5.76
2019-04-11T23:21:14.328Z,5.66
2019-04-11T23:23:41.221Z,5.58
2019-04-11T23:26:08.565Z,5.53
2019-04-11T23:28:35.879Z,5.61
2019-04-11T23:31:03.226Z,5.54
2019-04-11T23:33:30.548Z,5.48
2019-04-11T23:35:57.839Z,5.80
2019-04-11T23:38:25.200Z,5.68
2019-04-11T23:40:52.517Z,5.54
2019-04-11T23:43:20.588Z,5.48
2019-04-11T23:45:50.957Z,5.45
2019-04-11T23:48:17.258Z,5.50
2019-04-11T23:50:44.544Z,5.55
2019-04-11T23:53:11.878Z,5.50
2019-04-11T23:55:39.202Z,5.30
2019-04-11T23:58:06.519Z,5.52
